createdAt,value
2022-09-04T00:01:57.007Z,9.75
2022-09-04T00:04:23.283Z,10.07
2022-09-04T00:06:49.556Z,7.80
2022-09-04T00:09:15.721Z,9.20
2022-09-04T00:11:41.876Z,8.40
2022-09-04T00:14:08.070Z,11.50
2022-09-04T00:16:34.279Z,7.07
2022-09-04T00:19:00.471Z,11.48
2022-09-04T00:21:26.678Z,12.50
2022-09-04T00:23:52.885Z,11.73
2022-09-04T00:26:21.177Z,8.48
2022-09-04T00:28:47.457Z,11.27
2022-09-04T00:31:13.665Z,9.77
2022-09-04T00:33:39.938Z,8.30
2022-09-04T00:36:06.108Z,10.50
2022-09-04T00:38:32.267Z,9.13
2022-09-04T00:40:58.456Z,13.45
2022-09-04T00:43:24.647Z,10.75
2022-09-04T00:45:50.901Z,7.57
2022-09-04T00:48:17.115Z,7.35
2022-09-04T00:50:43.305Z,7.30
2022-09-04T00:53:09.466Z,8.63
2022-09-04T00:55:35.621Z,9.15
2022-09-04T00:58:01.795Z,7.20
2022-09-04T01:00:28.008Z,8.35
2022-09-04T01:02:54.220Z,7.25
2022-09-04T01:05:20.366Z,6.72
2022-09-04T01:07:46.518Z,8.80
2022-09-04T01:10:12.695Z,21.70
2022-09-04T01:12:38.855Z,7.15
2022-09-04T01:15:05.033Z,10.32
2022-09-04T01:17:31.226Z,8.23
2022-09-04T01:19:57.362Z,10.80
2022-09-04T01:22:23.530Z,7.95
2022-09-04T01:24:49.674Z,11.50
2022-09-04T01:27:15.839Z,8.55
2022-09-04T01:29:42.028Z,9.45
2022-09-04T01:32:08.172Z,9.05
2022-09-04T01:34:34.371Z,9.73
2022-09-04T01:37:00.543Z,8.20
2022-09-04T01:39:26.746Z,8.23
2022-09-04T01:41:52.953Z,9.85
2022-09-04T01:44:19.153Z,9.20
2022-09-04T01:46:45.327Z,9.63
2022-09-04T01:49:11.514Z,11.93
2022-09-04T01:51:37.692Z,11.50
2022-09-04T01:54:03.859Z,8.93
2022-09-04T01:56:30.037Z,9.88
2022-09-04T01:58:56.205Z,9.85
2022-09-04T02:01:22.437Z,12.45
2022-09-04T02:03:48.614Z,8.95
2022-09-04T02:06:14.762Z,10.88
2022-09-04T02:08:40.943Z,9.13
2022-09-04T02:11:07.069Z,11.77
2022-09-04T02:13:33.225Z,9.18
2022-09-04T02:15:59.445Z,10.32
2022-09-04T02:18:25.691Z,11.43
2022-09-04T02:20:51.936Z,10.75
2022-09-04T02:23:20.289Z,11.20
2022-09-04T02:25:46.529Z,11.00
2022-09-04T02:28:12.692Z,9.80
2022-09-04T02:30:38.890Z,10.45
2022-09-04T02:33:05.072Z,11.75
2022-09-04T02:35:31.277Z,11.68
2022-09-04T02:37:57.439Z,10.88
2022-09-04T02:40:23.627Z,11.27
2022-09-04T02:42:53.796Z,10.80
2022-09-04T02:45:20.010Z,7.93
2022-09-04T02:47:46.219Z,11.10
2022-09-04T02:50:12.480Z,7.63
2022-09-04T02:52:38.680Z,8.93
2022-09-04T02:55:04.880Z,13.13
2022-09-04T02:57:31.045Z,9.15
2022-09-04T02:59:57.184Z,7.38
2022-09-04T03:02:23.425Z,7.38
2022-09-04T03:04:49.643Z,9.15
2022-09-04T03:07:15.839Z,8.13
2022-09-04T03:09:42.002Z,8.60
2022-09-04T03:12:08.229Z,7.15
2022-09-04T03:14:34.519Z,9.32
2022-09-04T03:17:00.788Z,9.73
2022-09-04T03:19:26.959Z,12.25
2022-09-04T03:21:53.118Z,8.02
2022-09-04T03:24:19.304Z,7.47
2022-09-04T03:26:45.504Z,10.70
2022-09-04T03:29:11.685Z,7.15
2022-09-04T03:31:37.950Z,10.90
2022-09-04T03:34:04.167Z,8.43
2022-09-04T03:36:30.377Z,8.07
2022-09-04T03:38:56.558Z,6.97
2022-09-04T03:41:23.872Z,7.63
2022-09-04T03:43:50.075Z,8.05
2022-09-04T03:46:16.359Z,9.50
2022-09-04T03:48:42.588Z,9.85
2022-09-04T03:51:08.765Z,9.35
2022-09-04T03:53:34.933Z,10.57
2022-09-04T03:56:01.090Z,12.43
2022-09-04T03:58:27.285Z,12.55
2022-09-04T04:00:53.492Z,7.95
2022-09-04T04:03:19.884Z,8.75
2022-09-04T04:05:47.794Z,9.38
2022-09-04T04:08:14.689Z,7.45
2022-09-04T04:10:40.848Z,15.55
2022-09-04T04:13:07.042Z,10.60
2022-09-04T04:15:33.311Z,9.57
2022-09-04T04:17:59.507Z,7.00
2022-09-04T04:20:25.845Z,10.50
2022-09-04T04:22:52.060Z,8.05
2022-09-04T04:25:18.268Z,8.70
2022-09-04T04:27:44.443Z,10.73
2022-09-04T04:30:11.241Z,10.35
2022-09-04T04:32:37.427Z,13.43
2022-09-04T04:35:03.607Z,11.13
2022-09-04T04:37:29.793Z,10.85
2022-09-04T04:39:56.036Z,10.23
2022-09-04T04:42:22.251Z,11.70
2022-09-04T04:44:48.412Z,9.50
2022-09-04T04:47:14.592Z,12.95
2022-09-04T04:49:40.748Z,9.40
2022-09-04T04:52:06.943Z,10.40
2022-09-04T04:54:33.236Z,11.38
2022-09-04T04:56:59.459Z,9.07
2022-09-04T04:59:25.633Z,11.35
2022-09-04T05:01:51.885Z,11.40
2022-09-04T05:04:18.148Z,15.05
2022-09-04T05:06:44.343Z,11.70
2022-09-04T05:09:10.539Z,9.38
2022-09-04T05:11:36.706Z,10.30
2022-09-04T05:14:02.855Z,12.45
2022-09-04T05:16:29.066Z,11.25
2022-09-04T05:18:55.266Z,10.48
2022-09-04T05:21:21.594Z,11.65
2022-09-04T05:23:47.768Z,8.02
2022-09-04T05:26:26.840Z,13.70
2022-09-04T05:28:53.036Z,10.75
2022-09-04T05:31:19.288Z,9.18
2022-09-04T05:33:45.529Z,11.07
2022-09-04T05:36:11.686Z,11.65
2022-09-04T05:38:37.890Z,10.85
2022-09-04T05:41:04.087Z,13.70
2022-09-04T05:43:30.243Z,14.20
2022-09-04T05:45:56.461Z,13.73
2022-09-04T05:48:22.744Z,13.40
2022-09-04T05:50:49.032Z,13.30
2022-09-04T05:53:15.223Z,12.80
2022-09-04T05:55:41.392Z,12.52
2022-09-04T05:58:07.694Z,12.20
2022-09-04T06:00:33.882Z,12.10
2022-09-04T06:03:00.105Z,16.63
2022-09-04T06:05:35.284Z,13.07
2022-09-04T06:08:01.507Z,14.20
2022-09-04T06:10:27.811Z,14.20
2022-09-04T06:12:53.963Z,14.13
2022-09-04T06:15:20.123Z,14.65
2022-09-04T06:17:47.747Z,12.05
2022-09-04T06:20:13.957Z,15.77
2022-09-04T06:22:40.175Z,14.52
2022-09-04T06:25:07.553Z,15.18
2022-09-04T06:27:35.690Z,13.32
2022-09-04T06:30:01.925Z,13.27
2022-09-04T06:32:28.129Z,9.25
2022-09-04T06:34:54.430Z,11.65
2022-09-04T06:37:20.631Z,13.30
2022-09-04T06:39:47.106Z,11.77
2022-09-04T06:42:13.401Z,11.27
2022-09-04T06:44:39.566Z,10.20
2022-09-04T06:47:05.744Z,10.68
2022-09-04T06:49:31.914Z,12.98
2022-09-04T06:51:58.113Z,20.17
2022-09-04T06:54:25.354Z,15.63
2022-09-04T06:56:53.630Z,15.35
2022-09-04T06:59:20.069Z,14.63
2022-09-04T07:01:46.328Z,14.43
2022-09-04T07:04:12.664Z,11.75
2022-09-04T07:06:38.868Z,13.15
2022-09-04T07:09:05.116Z,11.75
2022-09-04T07:11:31.305Z,15.52
2022-09-04T07:13:57.529Z,16.80
2022-09-04T07:16:23.727Z,13.75
2022-09-04T07:18:49.904Z,15.25
2022-09-04T07:21:16.053Z,13.20
2022-09-04T07:23:42.235Z,14.13
2022-09-04T07:26:10.689Z,16.73
2022-09-04T07:28:36.865Z,11.52
2022-09-04T07:31:03.060Z,10.82
2022-09-04T07:33:29.347Z,11.27
2022-09-04T07:35:55.515Z,12.98
2022-09-04T07:38:21.748Z,9.90
2022-09-04T07:40:47.929Z,13.77
2022-09-04T07:43:14.166Z,9.75
2022-09-04T07:45:40.375Z,10.02
2022-09-04T07:48:06.578Z,12.30
2022-09-04T07:50:32.735Z,8.65
2022-09-04T07:53:03.041Z,10.30
2022-09-04T07:55:30.577Z,10.35
2022-09-04T07:57:57.935Z,11.60
2022-09-04T08:00:24.142Z,6.80
2022-09-04T08:02:50.309Z,11.93
2022-09-04T08:05:16.567Z,10.52
2022-09-04T08:07:42.816Z,8.82
2022-09-04T08:10:09.037Z,12.25
2022-09-04T08:12:35.248Z,11.63
2022-09-04T08:15:01.453Z,12.57
2022-09-04T08:17:27.632Z,9.50
2022-09-04T08:19:53.785Z,7.07
2022-09-04T08:22:19.984Z,10.15
2022-09-04T08:24:46.167Z,10.50
2022-09-04T08:27:12.356Z,8.98
2022-09-04T08:29:38.499Z,7.78
2022-09-04T08:32:04.655Z,8.57
2022-09-04T08:34:30.845Z,9.05
2022-09-04T08:36:57.022Z,9.40
2022-09-04T08:39:23.261Z,9.95
2022-09-04T08:41:49.485Z,14.40
2022-09-04T08:44:15.713Z,7.25
2022-09-04T08:46:41.971Z,5.43
2022-09-04T08:49:08.141Z,5.78
2022-09-04T08:51:34.322Z,8.23
2022-09-04T08:54:01.494Z,7.28
2022-09-04T08:56:27.909Z,9.15
2022-09-04T08:58:55.392Z,8.43
2022-09-04T09:01:21.735Z,9.18
2022-09-04T09:03:47.923Z,12.48
2022-09-04T09:06:14.102Z,10.13
2022-09-04T09:08:40.275Z,9.10
2022-09-04T09:11:06.438Z,10.57
2022-09-04T09:13:32.663Z,10.43
2022-09-04T09:15:58.827Z,9.85
2022-09-04T09:18:25.057Z,8.38
2022-09-04T09:20:51.334Z,11.85
2022-09-04T09:23:18.496Z,9.38
2022-09-04T09:25:44.864Z,10.00
2022-09-04T09:28:11.076Z,9.50
2022-09-04T09:30:37.321Z,11.20
2022-09-04T09:33:03.495Z,6.80
2022-09-04T09:35:29.697Z,8.45
2022-09-04T09:37:55.887Z,9.25
2022-09-04T09:40:22.101Z,10.00
2022-09-04T09:42:48.265Z,8.07
2022-09-04T09:45:18.663Z,7.90
2022-09-04T09:47:44.836Z,8.63
2022-09-04T09:50:11.023Z,9.85
2022-09-04T09:52:37.232Z,7.93
2022-09-04T09:55:05.377Z,8.48
2022-09-04T09:57:33.880Z,6.38
2022-09-04T10:00:00.302Z,9.73
2022-09-04T10:02:26.599Z,9.82
2022-09-04T10:04:52.800Z,5.70
2022-09-04T10:07:19.006Z,4.68
2022-09-04T10:09:45.262Z,5.38
2022-09-04T10:12:11.428Z,6.60
2022-09-04T10:14:37.735Z,4.97
2022-09-04T10:17:03.997Z,6.20
2022-09-04T10:19:30.224Z,5.28
2022-09-04T10:21:56.404Z,7.53
2022-09-04T10:24:22.595Z,6.78
2022-09-04T10:26:48.772Z,6.80
2022-09-04T10:29:14.944Z,4.05
2022-09-04T10:31:41.139Z,5.38
2022-09-04T10:34:07.295Z,3.83
2022-09-04T10:36:33.483Z,5.72
2022-09-04T10:38:59.641Z,3.22
2022-09-04T10:41:25.835Z,3.35
2022-09-04T10:43:52.000Z,2.92
2022-09-04T10:46:22.707Z,2.58
2022-09-04T10:48:49.450Z,2.90
2022-09-04T10:51:15.608Z,4.38
2022-09-04T10:53:41.823Z,5.35
2022-09-04T10:56:07.977Z,5.43
2022-09-04T10:58:34.154Z,6.03
2022-09-04T11:01:01.143Z,3.63
2022-09-04T11:03:27.421Z,3.42
2022-09-04T11:05:53.575Z,2.80
2022-09-04T11:08:19.780Z,2.28
2022-09-04T11:10:45.947Z,3.25
2022-09-04T11:13:12.134Z,2.40
2022-09-04T11:15:38.325Z,2.83
2022-09-04T11:18:04.487Z,3.70
2022-09-04T11:20:30.667Z,3.40
2022-09-04T11:22:56.827Z,2.78
2022-09-04T11:25:22.976Z,6.80
2022-09-04T11:27:50.875Z,3.30
2022-09-04T11:30:17.044Z,2.63
2022-09-04T11:32:43.218Z,5.30
2022-09-04T11:35:09.384Z,2.75
2022-09-04T11:37:35.528Z,3.65
2022-09-04T11:40:01.745Z,3.67
2022-09-04T11:42:27.954Z,2.75
2022-09-04T11:44:54.140Z,3.10
2022-09-04T11:47:20.316Z,3.30
2022-09-04T11:49:46.543Z,2.00
2022-09-04T11:52:12.729Z,3.15
2022-09-04T11:54:38.903Z,3.45
2022-09-04T11:57:05.055Z,4.60
2022-09-04T11:59:31.245Z,3.28
2022-09-04T12:01:57.473Z,3.58
2022-09-04T12:04:23.820Z,3.08
2022-09-04T12:06:50.031Z,3.00
2022-09-04T12:09:16.195Z,2.85
2022-09-04T12:11:42.402Z,3.63
2022-09-04T12:14:08.581Z,4.05
2022-09-04T12:16:34.766Z,3.30
2022-09-04T12:19:01.003Z,3.75
2022-09-04T12:21:27.227Z,2.63
2022-09-04T12:23:53.392Z,3.50
2022-09-04T12:26:19.564Z,4.78
2022-09-04T12:28:47.828Z,4.18
2022-09-04T12:31:14.056Z,10.18
2022-09-04T12:33:40.256Z,3.33
2022-09-04T12:36:06.426Z,3.28
2022-09-04T12:38:32.608Z,2.45
2022-09-04T12:40:58.793Z,3.65
2022-09-04T12:43:25.000Z,5.78
2022-09-04T12:45:51.239Z,3.92
2022-09-04T12:48:17.475Z,2.55
2022-09-04T12:50:43.628Z,4.40
2022-09-04T12:53:09.815Z,5.32
2022-09-04T12:55:36.315Z,6.05
2022-09-04T12:58:02.710Z,2.90
2022-09-04T13:00:31.740Z,2.42
2022-09-04T13:03:07.111Z,2.30
2022-09-04T13:05:46.800Z,3.25
2022-09-04T13:08:19.345Z,3.17
2022-09-04T13:10:45.515Z,2.33
2022-09-04T13:13:11.677Z,2.92
2022-09-04T13:15:37.900Z,3.00
2022-09-04T13:18:04.070Z,2.75
2022-09-04T13:20:30.231Z,3.75
2022-09-04T13:22:57.831Z,3.28
2022-09-04T13:25:24.140Z,5.15
2022-09-04T13:27:50.337Z,2.88
2022-09-04T13:30:16.552Z,3.00
2022-09-04T13:32:42.738Z,3.58
2022-09-04T13:35:08.959Z,2.95
2022-09-04T13:37:35.117Z,3.92
2022-09-04T13:40:04.388Z,2.10
2022-09-04T13:42:30.624Z,6.22
2022-09-04T13:44:56.776Z,2.85
2022-09-04T13:47:32.237Z,2.95
2022-09-04T13:49:59.071Z,4.38
2022-09-04T13:52:25.239Z,3.22
2022-09-04T13:54:51.412Z,3.28
2022-09-04T13:57:17.585Z,5.13
2022-09-04T13:59:43.780Z,4.25
2022-09-04T14:02:09.948Z,2.75
2022-09-04T14:04:36.337Z,2.30
2022-09-04T14:07:02.501Z,3.22
2022-09-04T14:09:28.685Z,2.97
2022-09-04T14:11:54.846Z,3.40
2022-09-04T14:14:20.996Z,3.22
2022-09-04T14:16:47.192Z,3.33
2022-09-04T14:19:15.867Z,3.08
2022-09-04T14:21:42.814Z,2.90
2022-09-04T14:24:08.991Z,4.63
2022-09-04T14:26:35.215Z,3.25
2022-09-04T14:29:01.449Z,3.17
2022-09-04T14:31:28.272Z,4.95
2022-09-04T14:34:00.312Z,3.05
2022-09-04T14:36:26.474Z,2.97
2022-09-04T14:38:52.633Z,3.33
2022-09-04T14:41:18.815Z,2.60
2022-09-04T14:43:49.639Z,2.53
2022-09-04T14:46:15.823Z,3.15
2022-09-04T14:48:42.041Z,2.85
2022-09-04T14:51:08.211Z,5.85
2022-09-04T14:53:34.412Z,3.03
2022-09-04T14:56:00.571Z,2.38
2022-09-04T14:58:27.409Z,3.70
2022-09-04T15:00:53.622Z,3.30
2022-09-04T15:03:20.056Z,3.38
2022-09-04T15:05:46.397Z,2.95
2022-09-04T15:08:12.557Z,3.55
2022-09-04T15:10:38.749Z,5.05
2022-09-04T15:13:04.937Z,3.50
2022-09-04T15:15:31.110Z,2.80
2022-09-04T15:17:57.277Z,5.55
2022-09-04T15:20:23.453Z,4.25
2022-09-04T15:22:49.658Z,3.67
2022-09-04T15:25:15.830Z,5.03
2022-09-04T15:27:42.012Z,4.93
2022-09-04T15:30:08.161Z,3.08
2022-09-04T15:32:34.331Z,3.38
2022-09-04T15:35:00.516Z,3.40
2022-09-04T15:37:26.685Z,3.95
2022-09-04T15:39:52.909Z,9.85
2022-09-04T15:42:19.104Z,2.50
2022-09-04T15:44:45.299Z,5.05
2022-09-04T15:47:11.475Z,4.60
2022-09-04T15:49:37.652Z,2.50
2022-09-04T15:52:03.852Z,3.08
2022-09-04T15:54:30.044Z,2.80
2022-09-04T15:56:56.203Z,4.15
2022-09-04T15:59:22.369Z,4.50
2022-09-04T16:01:48.619Z,2.83
2022-09-04T16:04:14.873Z,2.72
2022-09-04T16:06:41.037Z,2.67
2022-09-04T16:09:07.223Z,4.70
2022-09-04T16:11:33.405Z,5.18
2022-09-04T16:13:59.555Z,3.17
2022-09-04T16:16:25.746Z,3.97
2022-09-04T16:18:52.038Z,2.95
2022-09-04T16:21:18.208Z,2.50
2022-09-04T16:23:44.398Z,2.67
2022-09-04T16:26:10.576Z,5.35
2022-09-04T16:28:36.779Z,2.72
2022-09-04T16:31:03.020Z,2.33
2022-09-04T16:33:29.258Z,3.33
2022-09-04T16:35:55.402Z,3.78
2022-09-04T16:38:24.239Z,4.38
2022-09-04T16:40:50.637Z,3.78
2022-09-04T16:43:16.797Z,2.15
2022-09-04T16:45:42.994Z,5.65
2022-09-04T16:48:33.453Z,3.08
2022-09-04T16:50:55.358Z,3.78
2022-09-04T16:53:22.778Z,3.20
2022-09-04T16:55:48.991Z,2.78
2022-09-04T16:58:15.147Z,3.05
2022-09-04T17:00:41.358Z,2.72
2022-09-04T17:03:07.636Z,2.95
2022-09-04T17:05:33.870Z,2.58
2022-09-04T17:08:00.092Z,3.65
2022-09-04T17:10:26.289Z,3.92
2022-09-04T17:12:56.820Z,4.80
2022-09-04T17:15:22.977Z,4.93
2022-09-04T17:17:49.185Z,3.70
2022-09-04T17:20:15.357Z,2.72
2022-09-04T17:28:28.298Z,3.05
2022-09-04T17:29:02.553Z,3.70
2022-09-04T17:29:17.726Z,3.53
2022-09-04T17:31:00.087Z,2.72
2022-09-04T17:38:24.368Z,4.18
2022-09-04T17:40:47.084Z,2.85
2022-09-04T17:40:55.715Z,3.05
2022-09-04T17:41:59.276Z,4.43
2022-09-04T17:44:29.636Z,2.97
2022-09-04T17:46:57.844Z,7.05
2022-09-04T17:49:29.475Z,3.97
2022-09-04T17:52:01.118Z,3.05
2022-09-04T17:54:27.350Z,4.53
2022-09-04T17:56:53.561Z,3.38
2022-09-04T17:59:19.723Z,3.70
2022-09-04T18:01:45.968Z,5.93
2022-09-04T18:04:21.540Z,3.58
2022-09-04T18:06:48.580Z,3.95
2022-09-04T18:09:14.741Z,3.20
2022-09-04T18:12:00.258Z,3.00
2022-09-04T18:14:26.840Z,3.13
2022-09-04T18:17:11.305Z,4.20
2022-09-04T18:19:39.109Z,3.35
2022-09-04T18:22:25.592Z,2.60
2022-09-04T18:24:51.444Z,4.38
2022-09-04T18:27:17.617Z,2.97
2022-09-04T18:33:39.875Z,4.88
2022-09-04T18:37:10.820Z,4.60
2022-09-04T18:37:20.961Z,4.35
2022-09-04T18:38:02.368Z,3.20
2022-09-04T18:42:03.873Z,4.22
2022-09-04T18:50:15.785Z,2.97
2022-09-04T18:50:32.525Z,3.40
2022-09-04T18:50:51.556Z,5.07
2022-09-04T18:51:33.463Z,3.38
2022-09-04T18:53:59.701Z,3.92
2022-09-04T18:56:25.869Z,3.28
2022-09-04T18:58:52.047Z,4.57
2022-09-04T19:01:26.922Z,2.80
2022-09-04T19:03:53.813Z,3.45
2022-09-04T19:06:20.035Z,3.95
2022-09-04T19:08:47.442Z,3.72
2022-09-04T19:11:21.075Z,4.50
2022-09-04T19:13:47.722Z,3.30
2022-09-04T19:16:14.024Z,4.55
2022-09-04T19:18:40.255Z,4.22
2022-09-04T19:21:07.036Z,5.35
2022-09-04T19:23:35.461Z,3.60
2022-09-04T19:26:01.632Z,3.17
2022-09-04T19:28:27.838Z,6.88
2022-09-04T19:30:54.007Z,4.03
2022-09-04T19:33:20.180Z,4.00
2022-09-04T19:35:46.407Z,3.25
2022-09-04T19:42:07.424Z,5.32
2022-09-04T19:46:08.157Z,5.38
2022-09-04T19:46:18.375Z,4.28
2022-09-04T19:46:37.008Z,4.32
2022-09-04T19:51:06.643Z,4.60
2022-09-04T19:53:33.980Z,5.93
2022-09-04T19:54:41.162Z,5.00
2022-09-04T19:57:32.037Z,3.55
2022-09-04T19:59:53.522Z,4.50
2022-09-04T20:02:24.000Z,5.53
2022-09-04T20:04:50.213Z,4.15
2022-09-04T20:07:16.380Z,4.20
2022-09-04T20:09:42.556Z,3.75
2022-09-04T20:12:08.736Z,3.70
2022-09-04T20:14:35.029Z,3.95
2022-09-04T20:17:01.309Z,3.50
2022-09-04T20:19:28.609Z,4.78
2022-09-04T20:21:55.067Z,5.32
2022-09-04T20:24:21.261Z,7.03
2022-09-04T20:26:47.415Z,3.97
2022-09-04T20:29:13.584Z,6.15
2022-09-04T20:31:39.828Z,4.85
2022-09-04T20:34:08.225Z,5.78
2022-09-04T20:36:35.851Z,4.95
2022-09-04T20:39:02.035Z,4.57
2022-09-04T20:41:28.232Z,4.80
2022-09-04T20:52:41.166Z,5.47
2022-09-04T20:52:52.988Z,5.47
2022-09-04T20:52:57.007Z,6.28
2022-09-04T20:54:56.495Z,5.72
2022-09-04T21:01:39.932Z,5.55
2022-09-04T21:03:19.259Z,3.42
2022-09-04T21:03:19.369Z,7.07
2022-09-04T21:05:41.405Z,5.13
2022-09-04T21:08:07.637Z,4.53
2022-09-04T21:10:36.418Z,6.47
2022-09-04T21:13:13.483Z,5.63
2022-09-04T21:15:40.824Z,5.40
2022-09-04T21:18:06.983Z,5.03
2022-09-04T21:20:33.152Z,5.35
2022-09-04T21:22:59.311Z,5.78
2022-09-04T21:25:28.351Z,5.95
2022-09-04T21:27:54.674Z,5.32
2022-09-04T21:30:24.261Z,5.97
2022-09-04T21:32:50.554Z,5.32
2022-09-04T21:35:16.705Z,4.13
2022-09-04T21:37:52.923Z,6.43
2022-09-04T21:40:34.041Z,6.45
2022-09-04T21:43:05.305Z,6.07
2022-09-04T21:45:31.467Z,7.93
2022-09-04T21:47:57.721Z,7.43
2022-09-04T21:50:23.949Z,5.20
2022-09-04T21:52:51.682Z,5.07
2022-09-04T21:58:00.449Z,6.78
2022-09-04T22:02:38.832Z,4.80
2022-09-04T22:02:41.129Z,6.35
2022-09-04T22:03:40.916Z,5.03
2022-09-04T22:06:07.136Z,3.88
2022-09-04T22:13:34.939Z,7.20
2022-09-04T22:13:37.634Z,4.65
2022-09-04T22:14:06.205Z,5.30
2022-09-04T22:16:35.242Z,5.03
2022-09-04T22:19:01.427Z,4.95
2022-09-04T22:21:30.187Z,3.80
2022-09-04T22:23:56.345Z,7.35
2022-09-04T22:26:24.100Z,4.72
2022-09-04T22:28:50.665Z,5.45
2022-09-04T22:31:16.861Z,4.63
2022-09-04T22:34:14.418Z,6.05
2022-09-04T22:36:29.271Z,7.55
2022-09-04T22:38:55.471Z,5.53
2022-09-04T22:41:21.628Z,7.38
2022-09-04T22:43:47.796Z,4.63
2022-09-04T22:46:14.093Z,6.25
2022-09-04T22:48:40.277Z,5.28
2022-09-04T22:51:06.451Z,8.05
2022-09-04T22:53:32.633Z,5.03
2022-09-04T22:56:22.649Z,5.18
2022-09-04T22:58:44.956Z,5.20
2022-09-04T23:01:11.145Z,5.18
2022-09-04T23:03:39.146Z,5.75
2022-09-04T23:07:11.775Z,4.47
2022-09-04T23:13:44.262Z,6.18
2022-09-04T23:13:53.396Z,4.85
2022-09-04T23:14:24.251Z,6.75
2022-09-04T23:16:50.686Z,5.80
2022-09-04T23:26:23.478Z,5.00
2022-09-04T23:26:48.445Z,4.65
2022-09-04T23:26:52.820Z,4.80
2022-09-04T23:27:35.283Z,6.13
2022-09-04T23:30:01.473Z,5.68
2022-09-04T23:32:28.076Z,7.30
2022-09-04T23:34:57.718Z,9.00
2022-09-04T23:37:40.417Z,5.53
2022-09-04T23:40:06.668Z,6.20
2022-09-04T23:42:32.895Z,6.80
2022-09-04T23:44:59.090Z,6.50
2022-09-04T23:47:48.500Z,7.20
2022-09-04T23:50:11.411Z,11.05
2022-09-04T23:52:48.681Z,6.38
2022-09-04T23:55:15.584Z,6.07
2022-09-04T23:57:41.854Z,4.78
